sensor_id;sensor_type;location;lat;lon;timestamp;P1;durP1;ratioP1;P2;durP2;ratioP2
16472;SDS011;8347;52.486;13.432;2023-07-30T00:01:49;11.98;;;9.25;;
16472;SDS011;8347;52.486;13.432;2023-07-30T00:04:35;12.02;;;9.55;;
16472;SDS011;8347;52.486;13.432;2023-07-30T00:07:21;17.70;;;11.98;;
16472;SDS011;8347;52.486;13.432;2023-07-30T00:10:08;14.43;;;11.00;;
16472;SDS011;8347;52.486;13.432;2023-07-30T00:12:54;13.65;;;10.93;;
16472;SDS011;8347;52.486;13.432;2023-07-30T00:15:41;12.63;;;9.98;;
16472;SDS011;8347;52.486;13.432;2023-07-30T00:18:28;12.02;;;10.25;;
16472;SDS011;8347;52.486;13.432;2023-07-30T00:21:14;14.70;;;10.80;;
16472;SDS011;8347;52.486;13.432;2023-07-30T00:24:01;13.50;;;10.90;;
16472;SDS011;8347;52.486;13.432;2023-07-30T00:26:47;11.10;;;9.13;;
16472;SDS011;8347;52.486;13.432;2023-07-30T00:29:34;11.82;;;9.18;;
16472;SDS011;8347;52.486;13.432;2023-07-30T00:32:20;11.10;;;8.65;;
16472;SDS011;8347;52.486;13.432;2023-07-30T00:35:07;10.73;;;8.95;;
16472;SDS011;8347;52.486;13.432;2023-07-30T00:37:54;10.35;;;8.98;;
16472;SDS011;8347;52.486;13.432;2023-07-30T00:40:41;10.20;;;8.07;;
16472;SDS011;8347;52.486;13.432;2023-07-30T00:43:27;9.27;;;8.30;;
16472;SDS011;8347;52.486;13.432;2023-07-30T00:46:14;12.07;;;9.68;;
16472;SDS011;8347;52.486;13.432;2023-07-30T00:49:00;10.48;;;8.80;;
16472;SDS011;8347;52.486;13.432;2023-07-30T00:51:47;12.65;;;8.80;;
16472;SDS011;8347;52.486;13.432;2023-07-30T00:54:33;11.13;;;9.55;;
16472;SDS011;8347;52.486;13.432;2023-07-30T00:57:20;10.63;;;8.90;;
16472;SDS011;8347;52.486;13.432;2023-07-30T01:00:08;11.48;;;8.90;;
16472;SDS011;8347;52.486;13.432;2023-07-30T01:02:56;13.13;;;10.77;;
16472;SDS011;8347;52.486;13.432;2023-07-30T01:05:43;17.65;;;13.00;;
16472;SDS011;8347;52.486;13.432;2023-07-30T01:08:30;16.08;;;12.98;;
16472;SDS011;8347;52.486;13.432;2023-07-30T01:11:17;16.58;;;11.93;;
16472;SDS011;8347;52.486;13.432;2023-07-30T01:14:05;10.15;;;8.73;;
16472;SDS011;8347;52.486;13.432;2023-07-30T01:16:52;9.40;;;8.40;;
16472;SDS011;8347;52.486;13.432;2023-07-30T01:19:38;11.73;;;8.20;;
16472;SDS011;8347;52.486;13.432;2023-07-30T01:22:25;10.55;;;8.77;;
16472;SDS011;8347;52.486;13.432;2023-07-30T01:25:12;12.38;;;9.35;;
16472;SDS011;8347;52.486;13.432;2023-07-30T01:27:59;10.85;;;9.55;;
16472;SDS011;8347;52.486;13.432;2023-07-30T01:30:47;9.32;;;8.32;;
16472;SDS011;8347;52.486;13.432;2023-07-30T01:33:35;10.95;;;8.55;;
16472;SDS011;8347;52.486;13.432;2023-07-30T01:36:23;10.63;;;7.72;;
16472;SDS011;8347;52.486;13.432;2023-07-30T01:39:10;11.82;;;8.13;;
16472;SDS011;8347;52.486;13.432;2023-07-30T01:41:57;10.23;;;7.35;;
16472;SDS011;8347;52.486;13.432;2023-07-30T01:44:43;10.52;;;8.30;;
16472;SDS011;8347;52.486;13.432;2023-07-30T01:47:30;8.95;;;7.47;;
16472;SDS011;8347;52.486;13.432;2023-07-30T01:50:16;8.50;;;7.20;;
16472;SDS011;8347;52.486;13.432;2023-07-30T01:53:02;7.43;;;6.55;;
16472;SDS011;8347;52.486;13.432;2023-07-30T01:55:49;9.10;;;7.18;;
16472;SDS011;8347;52.486;13.432;2023-07-30T01:58:35;8.30;;;6.85;;
16472;SDS011;8347;52.486;13.432;2023-07-30T02:01:22;9.20;;;7.47;;
16472;SDS011;8347;52.486;13.432;2023-07-30T02:04:08;9.02;;;7.70;;
16472;SDS011;8347;52.486;13.432;2023-07-30T02:06:55;10.10;;;7.15;;
16472;SDS011;8347;52.486;13.432;2023-07-30T02:09:41;8.00;;;7.20;;
16472;SDS011;8347;52.486;13.432;2023-07-30T02:12:28;7.95;;;7.10;;
16472;SDS011;8347;52.486;13.432;2023-07-30T02:15:14;9.30;;;8.23;;
16472;SDS011;8347;52.486;13.432;2023-07-30T02:18:01;10.30;;;7.80;;
16472;SDS011;8347;52.486;13.432;2023-07-30T02:20:47;9.60;;;7.82;;
16472;SDS011;8347;52.486;13.432;2023-07-30T02:23:34;10.20;;;7.03;;
16472;SDS011;8347;52.486;13.432;2023-07-30T02:26:21;8.63;;;7.72;;
16472;SDS011;8347;52.486;13.432;2023-07-30T02:29:07;8.90;;;7.80;;
16472;SDS011;8347;52.486;13.432;2023-07-30T02:31:54;8.68;;;7.40;;
16472;SDS011;8347;52.486;13.432;2023-07-30T02:34:40;10.75;;;8.57;;
16472;SDS011;8347;52.486;13.432;2023-07-30T02:37:27;12.63;;;8.80;;
16472;SDS011;8347;52.486;13.432;2023-07-30T02:40:13;10.68;;;7.43;;
16472;SDS011;8347;52.486;13.432;2023-07-30T02:43:00;16.45;;;10.43;;
16472;SDS011;8347;52.486;13.432;2023-07-30T02:45:49;12.20;;;9.60;;
16472;SDS011;8347;52.486;13.432;2023-07-30T02:48:35;10.13;;;8.95;;
16472;SDS011;8347;52.486;13.432;2023-07-30T02:51:22;9.15;;;6.97;;
16472;SDS011;8347;52.486;13.432;2023-07-30T02:54:08;7.07;;;6.38;;
16472;SDS011;8347;52.486;13.432;2023-07-30T02:56:55;10.82;;;8.18;;
16472;SDS011;8347;52.486;13.432;2023-07-30T02:59:42;7.97;;;6.97;;
16472;SDS011;8347;52.486;13.432;2023-07-30T03:02:28;10.57;;;7.50;;
16472;SDS011;8347;52.486;13.432;2023-07-30T03:05:15;8.93;;;7.80;;
16472;SDS011;8347;52.486;13.432;2023-07-30T03:08:03;9.02;;;7.35;;
16472;SDS011;8347;52.486;13.432;2023-07-30T03:10:50;8.02;;;6.68;;
16472;SDS011;8347;52.486;13.432;2023-07-30T03:13:36;7.72;;;6.95;;
16472;SDS011;8347;52.486;13.432;2023-07-30T03:16:22;10.70;;;8.30;;
16472;SDS011;8347;52.486;13.432;2023-07-30T03:19:09;8.45;;;7.38;;
16472;SDS011;8347;52.486;13.432;2023-07-30T03:21:55;8.90;;;7.75;;
16472;SDS011;8347;52.486;13.432;2023-07-30T03:24:41;9.77;;;7.18;;
16472;SDS011;8347;52.486;13.432;2023-07-30T03:27:28;8.82;;;7.50;;
16472;SDS011;8347;52.486;13.432;2023-07-30T03:30:14;8.90;;;8.00;;
16472;SDS011;8347;52.486;13.432;2023-07-30T03:33:01;8.68;;;7.25;;
16472;SDS011;8347;52.486;13.432;2023-07-30T03:35:47;8.90;;;8.00;;
16472;SDS011;8347;52.486;13.432;2023-07-30T03:38:34;8.68;;;7.82;;
16472;SDS011;8347;52.486;13.432;2023-07-30T03:41:22;9.98;;;8.45;;
16472;SDS011;8347;52.486;13.432;2023-07-30T03:44:08;9.57;;;8.52;;
16472;SDS011;8347;52.486;13.432;2023-07-30T03:46:54;8.55;;;7.68;;
16472;SDS011;8347;52.486;13.432;2023-07-30T03:49:42;8.98;;;7.05;;
16472;SDS011;8347;52.486;13.432;2023-07-30T03:52:29;9.77;;;8.77;;
16472;SDS011;8347;52.486;13.432;2023-07-30T03:55:15;10.70;;;8.18;;
16472;SDS011;8347;52.486;13.432;2023-07-30T03:58:01;8.75;;;7.85;;
16472;SDS011;8347;52.486;13.432;2023-07-30T04:00:48;9.63;;;8.73;;
16472;SDS011;8347;52.486;13.432;2023-07-30T04:03:35;10.00;;;9.00;;
16472;SDS011;8347;52.486;13.432;2023-07-30T04:06:21;9.32;;;8.43;;
16472;SDS011;8347;52.486;13.432;2023-07-30T04:09:09;9.45;;;8.50;;
16472;SDS011;8347;52.486;13.432;2023-07-30T04:11:57;8.93;;;8.05;;
16472;SDS011;8347;52.486;13.432;2023-07-30T04:14:43;9.27;;;8.48;;
16472;SDS011;8347;52.486;13.432;2023-07-30T04:17:30;10.85;;;9.05;;
16472;SDS011;8347;52.486;13.432;2023-07-30T04:20:16;9.35;;;8.45;;
16472;SDS011;8347;52.486;13.432;2023-07-30T04:23:03;9.23;;;8.40;;
16472;SDS011;8347;52.486;13.432;2023-07-30T04:25:50;9.60;;;8.70;;
16472;SDS011;8347;52.486;13.432;2023-07-30T04:28:36;9.75;;;8.82;;
16472;SDS011;8347;52.486;13.432;2023-07-30T04:31:23;12.90;;;8.60;;
16472;SDS011;8347;52.486;13.432;2023-07-30T04:34:10;8.68;;;7.88;;
16472;SDS011;8347;52.486;13.432;2023-07-30T04:36:56;9.35;;;8.40;;
16472;SDS011;8347;52.486;13.432;2023-07-30T04:39:43;10.27;;;8.07;;
16472;SDS011;8347;52.486;13.432;2023-07-30T04:42:30;8.75;;;7.95;;
16472;SDS011;8347;52.486;13.432;2023-07-30T04:45:16;8.02;;;7.32;;
16472;SDS011;8347;52.486;13.432;2023-07-30T04:48:06;9.00;;;8.10;;
16472;SDS011;8347;52.486;13.432;2023-07-30T04:50:52;8.57;;;7.65;;
16472;SDS011;8347;52.486;13.432;2023-07-30T04:53:38;9.07;;;8.27;;
16472;SDS011;8347;52.486;13.432;2023-07-30T04:56:25;9.38;;;8.20;;
16472;SDS011;8347;52.486;13.432;2023-07-30T04:59:12;9.18;;;7.82;;
16472;SDS011;8347;52.486;13.432;2023-07-30T05:01:59;8.48;;;7.68;;
16472;SDS011;8347;52.486;13.432;2023-07-30T05:04:46;9.10;;;7.15;;
16472;SDS011;8347;52.486;13.432;2023-07-30T05:07:32;8.60;;;7.80;;
16472;SDS011;8347;52.486;13.432;2023-07-30T05:10:19;8.13;;;7.20;;
16472;SDS011;8347;52.486;13.432;2023-07-30T05:13:05;6.85;;;6.25;;
16472;SDS011;8347;52.486;13.432;2023-07-30T05:15:52;7.47;;;6.78;;
16472;SDS011;8347;52.486;13.432;2023-07-30T05:18:39;6.60;;;6.07;;
16472;SDS011;8347;52.486;13.432;2023-07-30T05:21:25;6.63;;;5.95;;
16472;SDS011;8347;52.486;13.432;2023-07-30T05:24:11;6.88;;;6.28;;
16472;SDS011;8347;52.486;13.432;2023-07-30T05:26:58;6.55;;;5.30;;
16472;SDS011;8347;52.486;13.432;2023-07-30T05:29:45;5.80;;;5.30;;
16472;SDS011;8347;52.486;13.432;2023-07-30T05:32:31;5.00;;;4.60;;
16472;SDS011;8347;52.486;13.432;2023-07-30T05:35:18;5.68;;;5.18;;
16472;SDS011;8347;52.486;13.432;2023-07-30T05:38:04;5.28;;;4.40;;
16472;SDS011;8347;52.486;13.432;2023-07-30T05:40:50;4.90;;;4.50;;
16472;SDS011;8347;52.486;13.432;2023-07-30T05:43:37;4.22;;;3.92;;
16472;SDS011;8347;52.486;13.432;2023-07-30T05:46:23;4.50;;;3.88;;
16472;SDS011;8347;52.486;13.432;2023-07-30T05:49:10;3.42;;;3.15;;
16472;SDS011;8347;52.486;13.432;2023-07-30T05:51:56;5.03;;;3.53;;
16472;SDS011;8347;52.486;13.432;2023-07-30T05:54:43;5.55;;;3.50;;
16472;SDS011;8347;52.486;13.432;2023-07-30T05:57:29;4.28;;;3.70;;
16472;SDS011;8347;52.486;13.432;2023-07-30T06:00:16;4.22;;;3.67;;
16472;SDS011;8347;52.486;13.432;2023-07-30T06:03:02;4.00;;;3.28;;
16472;SDS011;8347;52.486;13.432;2023-07-30T06:05:49;4.70;;;4.28;;
16472;SDS011;8347;52.486;13.432;2023-07-30T06:08:35;4.13;;;3.70;;
16472;SDS011;8347;52.486;13.432;2023-07-30T06:11:22;3.38;;;2.85;;
16472;SDS011;8347;52.486;13.432;2023-07-30T06:14:09;3.72;;;3.30;;
16472;SDS011;8347;52.486;13.432;2023-07-30T06:16:55;3.63;;;3.28;;
16472;SDS011;8347;52.486;13.432;2023-07-30T06:19:41;3.47;;;3.17;;
16472;SDS011;8347;52.486;13.432;2023-07-30T06:22:28;9.80;;;7.68;;
16472;SDS011;8347;52.486;13.432;2023-07-30T06:25:14;5.07;;;3.72;;
16472;SDS011;8347;52.486;13.432;2023-07-30T06:28:01;3.10;;;2.80;;
16472;SDS011;8347;52.486;13.432;2023-07-30T06:30:48;3.10;;;2.88;;
16472;SDS011;8347;52.486;13.432;2023-07-30T06:33:35;3.92;;;3.17;;
16472;SDS011;8347;52.486;13.432;2023-07-30T06:36:21;4.35;;;3.08;;
16472;SDS011;8347;52.486;13.432;2023-07-30T06:39:08;4.32;;;3.25;;
16472;SDS011;8347;52.486;13.432;2023-07-30T06:41:54;3.20;;;2.90;;
16472;SDS011;8347;52.486;13.432;2023-07-30T06:44:41;4.07;;;2.97;;
16472;SDS011;8347;52.486;13.432;2023-07-30T06:47:27;3.38;;;3.08;;
16472;SDS011;8347;52.486;13.432;2023-07-30T06:50:14;3.00;;;2.80;;
16472;SDS011;8347;52.486;13.432;2023-07-30T06:53:00;4.25;;;2.70;;
16472;SDS011;8347;52.486;13.432;2023-07-30T06:55:47;3.70;;;2.97;;
16472;SDS011;8347;52.486;13.432;2023-07-30T06:58:33;4.07;;;2.58;;
16472;SDS011;8347;52.486;13.432;2023-07-30T07:01:20;8.77;;;6.50;;
16472;SDS011;8347;52.486;13.432;2023-07-30T07:04:06;4.60;;;3.70;;
16472;SDS011;8347;52.486;13.432;2023-07-30T07:06:53;4.25;;;3.30;;
16472;SDS011;8347;52.486;13.432;2023-07-30T07:09:39;4.38;;;3.10;;
16472;SDS011;8347;52.486;13.432;2023-07-30T07:12:26;2.97;;;2.67;;
16472;SDS011;8347;52.486;13.432;2023-07-30T07:15:13;4.85;;;3.30;;
16472;SDS011;8347;52.486;13.432;2023-07-30T07:17:59;5.43;;;3.13;;
16472;SDS011;8347;52.486;13.432;2023-07-30T07:20:46;3.30;;;2.80;;
16472;SDS011;8347;52.486;13.432;2023-07-30T07:23:33;4.47;;;3.67;;
16472;SDS011;8347;52.486;13.432;2023-07-30T07:26:19;4.25;;;3.05;;
16472;SDS011;8347;52.486;13.432;2023-07-30T07:29:06;4.10;;;3.70;;
16472;SDS011;8347;52.486;13.432;2023-07-30T07:31:52;7.75;;;3.47;;
16472;SDS011;8347;52.486;13.432;2023-07-30T07:34:39;6.32;;;3.38;;
16472;SDS011;8347;52.486;13.432;2023-07-30T07:37:25;5.10;;;4.22;;
16472;SDS011;8347;52.486;13.432;2023-07-30T07:40:11;4.82;;;2.63;;
16472;SDS011;8347;52.486;13.432;2023-07-30T07:42:58;4.63;;;3.90;;
16472;SDS011;8347;52.486;13.432;2023-07-30T07:45:45;9.50;;;5.97;;
16472;SDS011;8347;52.486;13.432;2023-07-30T07:48:31;5.93;;;4.72;;
16472;SDS011;8347;52.486;13.432;2023-07-30T07:51:18;5.78;;;5.13;;
16472;SDS011;8347;52.486;13.432;2023-07-30T07:54:04;4.93;;;4.20;;
16472;SDS011;8347;52.486;13.432;2023-07-30T07:56:51;9.90;;;6.10;;
16472;SDS011;8347;52.486;13.432;2023-07-30T07:59:38;4.88;;;4.20;;
16472;SDS011;8347;52.486;13.432;2023-07-30T08:02:24;4.32;;;3.42;;
16472;SDS011;8347;52.486;13.432;2023-07-30T08:05:11;3.78;;;3.47;;
16472;SDS011;8347;52.486;13.432;2023-07-30T08:07:57;4.15;;;3.75;;
16472;SDS011;8347;52.486;13.432;2023-07-30T08:10:44;5.00;;;3.30;;
16472;SDS011;8347;52.486;13.432;2023-07-30T08:13:32;7.22;;;3.97;;
16472;SDS011;8347;52.486;13.432;2023-07-30T08:16:19;6.68;;;4.50;;
16472;SDS011;8347;52.486;13.432;2023-07-30T08:19:06;12.45;;;7.63;;
16472;SDS011;8347;52.486;13.432;2023-07-30T08:21:52;4.22;;;3.67;;
16472;SDS011;8347;52.486;13.432;2023-07-30T08:24:41;5.80;;;3.30;;
16472;SDS011;8347;52.486;13.432;2023-07-30T08:27:27;6.07;;;5.03;;
16472;SDS011;8347;52.486;13.432;2023-07-30T08:30:14;7.82;;;5.38;;
16472;SDS011;8347;52.486;13.432;2023-07-30T08:33:01;6.55;;;5.70;;
16472;SDS011;8347;52.486;13.432;2023-07-30T08:35:47;7.60;;;4.03;;
16472;SDS011;8347;52.486;13.432;2023-07-30T08:38:33;5.30;;;3.78;;
16472;SDS011;8347;52.486;13.432;2023-07-30T08:41:20;2.90;;;2.40;;
16472;SDS011;8347;52.486;13.432;2023-07-30T08:44:07;3.75;;;2.20;;
16472;SDS011;8347;52.486;13.432;2023-07-30T08:46:55;4.85;;;2.45;;
16472;SDS011;8347;52.486;13.432;2023-07-30T08:49:42;3.40;;;2.85;;
16472;SDS011;8347;52.486;13.432;2023-07-30T08:52:29;5.15;;;2.95;;
16472;SDS011;8347;52.486;13.432;2023-07-30T08:55:16;5.15;;;2.83;;
16472;SDS011;8347;52.486;13.432;2023-07-30T08:58:03;5.18;;;3.10;;
16472;SDS011;8347;52.486;13.432;2023-07-30T09:00:50;3.63;;;2.75;;
16472;SDS011;8347;52.486;13.432;2023-07-30T09:03:38;3.67;;;2.60;;
16472;SDS011;8347;52.486;13.432;2023-07-30T09:06:25;3.58;;;2.47;;
16472;SDS011;8347;52.486;13.432;2023-07-30T09:09:12;1.92;;;1.77;;
16472;SDS011;8347;52.486;13.432;2023-07-30T09:11:59;3.60;;;2.10;;
16472;SDS011;8347;52.486;13.432;2023-07-30T09:14:50;4.05;;;2.97;;
16472;SDS011;8347;52.486;13.432;2023-07-30T09:17:37;3.83;;;2.55;;
16472;SDS011;8347;52.486;13.432;2023-07-30T09:20:23;2.72;;;2.00;;
16472;SDS011;8347;52.486;13.432;2023-07-30T09:23:11;3.65;;;2.20;;
16472;SDS011;8347;52.486;13.432;2023-07-30T09:25:58;5.65;;;2.33;;
16472;SDS011;8347;52.486;13.432;2023-07-30T09:28:44;4.05;;;2.50;;
16472;SDS011;8347;52.486;13.432;2023-07-30T09:31:30;3.22;;;1.95;;
16472;SDS011;8347;52.486;13.432;2023-07-30T09:34:17;5.53;;;3.03;;
16472;SDS011;8347;52.486;13.432;2023-07-30T09:37:05;5.53;;;4.00;;
16472;SDS011;8347;52.486;13.432;2023-07-30T09:39:53;5.07;;;3.53;;
16472;SDS011;8347;52.486;13.432;2023-07-30T09:42:42;4.25;;;3.17;;
16472;SDS011;8347;52.486;13.432;2023-07-30T09:45:32;4.57;;;3.20;;
16472;SDS011;8347;52.486;13.432;2023-07-30T09:48:21;6.10;;;3.95;;
16472;SDS011;8347;52.486;13.432;2023-07-30T09:51:08;7.25;;;3.05;;
16472;SDS011;8347;52.486;13.432;2023-07-30T09:53:54;4.30;;;2.88;;
16472;SDS011;8347;52.486;13.432;2023-07-30T09:56:41;2.60;;;2.40;;
16472;SDS011;8347;52.486;13.432;2023-07-30T09:59:28;4.03;;;3.35;;
16472;SDS011;8347;52.486;13.432;2023-07-30T10:02:15;5.35;;;2.92;;
16472;SDS011;8347;52.486;13.432;2023-07-30T10:05:02;5.18;;;2.70;;
16472;SDS011;8347;52.486;13.432;2023-07-30T10:07:56;4.40;;;2.22;;
16472;SDS011;8347;52.486;13.432;2023-07-30T10:10:46;3.15;;;2.35;;
16472;SDS011;8347;52.486;13.432;2023-07-30T10:13:34;3.15;;;2.25;;
16472;SDS011;8347;52.486;13.432;2023-07-30T10:16:28;2.97;;;2.25;;
16472;SDS011;8347;52.486;13.432;2023-07-30T10:19:15;3.88;;;2.38;;
16472;SDS011;8347;52.486;13.432;2023-07-30T10:24:58;3.35;;;2.25;;
16472;SDS011;8347;52.486;13.432;2023-07-30T10:27:45;3.67;;;2.40;;
16472;SDS011;8347;52.486;13.432;2023-07-30T10:30:36;5.30;;;3.50;;
16472;SDS011;8347;52.486;13.432;2023-07-30T10:33:22;5.22;;;3.08;;
16472;SDS011;8347;52.486;13.432;2023-07-30T10:36:08;5.00;;;2.38;;
16472;SDS011;8347;52.486;13.432;2023-07-30T10:38:56;5.28;;;3.10;;
16472;SDS011;8347;52.486;13.432;2023-07-30T10:41:46;4.57;;;3.20;;
16472;SDS011;8347;52.486;13.432;2023-07-30T10:44:34;5.75;;;3.05;;
16472;SDS011;8347;52.486;13.432;2023-07-30T10:47:20;5.32;;;3.72;;
16472;SDS011;8347;52.486;13.432;2023-07-30T10:50:07;4.65;;;2.90;;
16472;SDS011;8347;52.486;13.432;2023-07-30T10:52:53;5.78;;;3.60;;
16472;SDS011;8347;52.486;13.432;2023-07-30T10:55:40;7.40;;;3.90;;
16472;SDS011;8347;52.486;13.432;2023-07-30T10:58:27;9.63;;;4.90;;
16472;SDS011;8347;52.486;13.432;2023-07-30T11:01:15;4.60;;;3.80;;
16472;SDS011;8347;52.486;13.432;2023-07-30T11:04:01;6.82;;;4.18;;
16472;SDS011;8347;52.486;13.432;2023-07-30T11:07:16;8.68;;;5.05;;
16472;SDS011;8347;52.486;13.432;2023-07-30T11:10:03;11.95;;;7.15;;
16472;SDS011;8347;52.486;13.432;2023-07-30T11:12:50;6.80;;;4.32;;
16472;SDS011;8347;52.486;13.432;2023-07-30T11:15:40;5.72;;;3.10;;
16472;SDS011;8347;52.486;13.432;2023-07-30T11:18:30;5.22;;;2.92;;
16472;SDS011;8347;52.486;13.432;2023-07-30T11:21:18;5.07;;;2.83;;
16472;SDS011;8347;52.486;13.432;2023-07-30T11:24:05;5.50;;;3.15;;
16472;SDS011;8347;52.486;13.432;2023-07-30T11:26:58;5.18;;;3.05;;
16472;SDS011;8347;52.486;13.432;2023-07-30T11:29:53;5.45;;;3.33;;
16472;SDS011;8347;52.486;13.432;2023-07-30T11:32:41;5.72;;;3.28;;
16472;SDS011;8347;52.486;13.432;2023-07-30T11:35:28;5.15;;;3.17;;
16472;SDS011;8347;52.486;13.432;2023-07-30T11:38:15;6.78;;;2.80;;
16472;SDS011;8347;52.486;13.432;2023-07-30T11:41:02;3.60;;;2.38;;
16472;SDS011;8347;52.486;13.432;2023-07-30T11:43:51;4.95;;;1.98;;
16472;SDS011;8347;52.486;13.432;2023-07-30T11:46:37;4.97;;;3.05;;
16472;SDS011;8347;52.486;13.432;2023-07-30T11:49:24;4.32;;;2.33;;
16472;SDS011;8347;52.486;13.432;2023-07-30T11:52:10;3.25;;;2.17;;
16472;SDS011;8347;52.486;13.432;2023-07-30T11:55:03;6.57;;;2.33;;
16472;SDS011;8347;52.486;13.432;2023-07-30T11:57:50;7.70;;;3.38;;
16472;SDS011;8347;52.486;13.432;2023-07-30T12:00:37;7.20;;;2.63;;
16472;SDS011;8347;52.486;13.432;2023-07-30T12:03:24;7.90;;;2.72;;
16472;SDS011;8347;52.486;13.432;2023-07-30T12:06:11;4.15;;;2.78;;
16472;SDS011;8347;52.486;13.432;2023-07-30T12:08:58;6.68;;;4.35;;
16472;SDS011;8347;52.486;13.432;2023-07-30T12:11:46;11.77;;;7.70;;
16472;SDS011;8347;52.486;13.432;2023-07-30T12:14:43;5.88;;;2.65;;
16472;SDS011;8347;52.486;13.432;2023-07-30T12:17:30;6.55;;;3.50;;
16472;SDS011;8347;52.486;13.432;2023-07-30T12:20:17;8.63;;;3.65;;
16472;SDS011;8347;52.486;13.432;2023-07-30T12:23:03;5.38;;;3.10;;
16472;SDS011;8347;52.486;13.432;2023-07-30T12:25:50;4.03;;;2.67;;
16472;SDS011;8347;52.486;13.432;2023-07-30T12:28:36;6.25;;;3.08;;
16472;SDS011;8347;52.486;13.432;2023-07-30T12:31:23;5.93;;;3.17;;
16472;SDS011;8347;52.486;13.432;2023-07-30T12:34:10;10.18;;;6.35;;
16472;SDS011;8347;52.486;13.432;2023-07-30T12:36:56;11.80;;;6.18;;
16472;SDS011;8347;52.486;13.432;2023-07-30T12:39:44;7.03;;;3.92;;
16472;SDS011;8347;52.486;13.432;2023-07-30T12:42:30;6.70;;;3.40;;
16472;SDS011;8347;52.486;13.432;2023-07-30T12:45:17;6.13;;;3.45;;
16472;SDS011;8347;52.486;13.432;2023-07-30T12:48:04;7.00;;;4.32;;
16472;SDS011;8347;52.486;13.432;2023-07-30T12:50:50;6.63;;;4.50;;
16472;SDS011;8347;52.486;13.432;2023-07-30T12:53:37;3.92;;;3.00;;
16472;SDS011;8347;52.486;13.432;2023-07-30T12:56:23;4.85;;;2.95;;
16472;SDS011;8347;52.486;13.432;2023-07-30T12:59:10;8.55;;;4.85;;
16472;SDS011;8347;52.486;13.432;2023-07-30T13:01:56;8.07;;;6.13;;
16472;SDS011;8347;52.486;13.432;2023-07-30T13:04:43;5.25;;;2.65;;
16472;SDS011;8347;52.486;13.432;2023-07-30T13:07:30;7.60;;;3.45;;
16472;SDS011;8347;52.486;13.432;2023-07-30T13:10:16;5.80;;;2.95;;
16472;SDS011;8347;52.486;13.432;2023-07-30T13:13:03;5.90;;;3.22;;
16472;SDS011;8347;52.486;13.432;2023-07-30T13:15:50;5.90;;;3.30;;
16472;SDS011;8347;52.486;13.432;2023-07-30T13:18:36;6.93;;;4.05;;
16472;SDS011;8347;52.486;13.432;2023-07-30T13:21:22;6.57;;;4.18;;
16472;SDS011;8347;52.486;13.432;2023-07-30T13:24:09;8.40;;;4.88;;
16472;SDS011;8347;52.486;13.432;2023-07-30T13:26:55;5.95;;;4.72;;
16472;SDS011;8347;52.486;13.432;2023-07-30T13:29:41;9.13;;;4.93;;
16472;SDS011;8347;52.486;13.432;2023-07-30T13:32:28;7.53;;;4.70;;
16472;SDS011;8347;52.486;13.432;2023-07-30T13:35:14;4.18;;;3.30;;
16472;SDS011;8347;52.486;13.432;2023-07-30T13:38:02;6.95;;;5.38;;
16472;SDS011;8347;52.486;13.432;2023-07-30T13:40:48;7.75;;;4.30;;
16472;SDS011;8347;52.486;13.432;2023-07-30T13:43:35;7.38;;;4.38;;
16472;SDS011;8347;52.486;13.432;2023-07-30T13:46:21;9.48;;;5.22;;
16472;SDS011;8347;52.486;13.432;2023-07-30T13:49:08;6.63;;;4.60;;
16472;SDS011;8347;52.486;13.432;2023-07-30T13:51:55;8.75;;;6.38;;
16472;SDS011;8347;52.486;13.432;2023-07-30T13:54:41;4.90;;;3.78;;
16472;SDS011;8347;52.486;13.432;2023-07-30T13:57:28;6.25;;;4.32;;
16472;SDS011;8347;52.486;13.432;2023-07-30T14:00:14;4.35;;;3.75;;
16472;SDS011;8347;52.486;13.432;2023-07-30T14:03:01;4.60;;;3.83;;
16472;SDS011;8347;52.486;13.432;2023-07-30T14:05:48;5.53;;;3.92;;
16472;SDS011;8347;52.486;13.432;2023-07-30T14:08:34;7.75;;;5.25;;
16472;SDS011;8347;52.486;13.432;2023-07-30T14:11:21;11.65;;;6.20;;
16472;SDS011;8347;52.486;13.432;2023-07-30T14:14:07;22.27;;;13.98;;
16472;SDS011;8347;52.486;13.432;2023-07-30T14:16:54;15.27;;;11.32;;
16472;SDS011;8347;52.486;13.432;2023-07-30T14:19:40;8.75;;;6.30;;
16472;SDS011;8347;52.486;13.432;2023-07-30T14:22:27;9.93;;;5.90;;
16472;SDS011;8347;52.486;13.432;2023-07-30T14:25:14;8.77;;;5.88;;
16472;SDS011;8347;52.486;13.432;2023-07-30T14:28:00;5.80;;;3.88;;
16472;SDS011;8347;52.486;13.432;2023-07-30T14:30:47;9.93;;;6.38;;
16472;SDS011;8347;52.486;13.432;2023-07-30T14:33:33;9.27;;;6.07;;
16472;SDS011;8347;52.486;13.432;2023-07-30T14:36:21;8.50;;;4.65;;
16472;SDS011;8347;52.486;13.432;2023-07-30T14:39:07;6.75;;;4.15;;
16472;SDS011;8347;52.486;13.432;2023-07-30T14:41:54;10.23;;;6.70;;
16472;SDS011;8347;52.486;13.432;2023-07-30T14:44:40;11.57;;;6.78;;
16472;SDS011;8347;52.486;13.432;2023-07-30T14:47:27;15.40;;;10.00;;
16472;SDS011;8347;52.486;13.432;2023-07-30T14:50:14;17.63;;;7.47;;
16472;SDS011;8347;52.486;13.432;2023-07-30T14:53:00;10.88;;;6.03;;
16472;SDS011;8347;52.486;13.432;2023-07-30T14:55:47;8.93;;;5.00;;
16472;SDS011;8347;52.486;13.432;2023-07-30T14:58:34;5.90;;;3.45;;
16472;SDS011;8347;52.486;13.432;2023-07-30T15:01:21;5.65;;;3.58;;
16472;SDS011;8347;52.486;13.432;2023-07-30T15:04:09;8.38;;;5.43;;
16472;SDS011;8347;52.486;13.432;2023-07-30T15:06:55;7.32;;;4.70;;
16472;SDS011;8347;52.486;13.432;2023-07-30T15:09:42;13.43;;;7.25;;
16472;SDS011;8347;52.486;13.432;2023-07-30T15:12:30;14.45;;;8.18;;
16472;SDS011;8347;52.486;13.432;2023-07-30T15:15:16;14.75;;;7.63;;
16472;SDS011;8347;52.486;13.432;2023-07-30T15:18:03;10.68;;;7.70;;
16472;SDS011;8347;52.486;13.432;2023-07-30T15:20:53;23.00;;;13.45;;
16472;SDS011;8347;52.486;13.432;2023-07-30T15:23:41;10.52;;;7.60;;
16472;SDS011;8347;52.486;13.432;2023-07-30T15:26:28;13.07;;;6.25;;
16472;SDS011;8347;52.486;13.432;2023-07-30T15:29:15;11.80;;;7.30;;
16472;SDS011;8347;52.486;13.432;2023-07-30T15:32:01;5.95;;;4.18;;
16472;SDS011;8347;52.486;13.432;2023-07-30T15:34:48;6.60;;;4.97;;
16472;SDS011;8347;52.486;13.432;2023-07-30T15:37:34;8.25;;;4.50;;
16472;SDS011;8347;52.486;13.432;2023-07-30T15:40:21;7.60;;;5.55;;
16472;SDS011;8347;52.486;13.432;2023-07-30T15:43:07;10.38;;;4.65;;
16472;SDS011;8347;52.486;13.432;2023-07-30T15:45:54;8.20;;;4.88;;
16472;SDS011;8347;52.486;13.432;2023-07-30T15:48:47;7.47;;;5.45;;
16472;SDS011;8347;52.486;13.432;2023-07-30T15:51:34;6.30;;;4.32;;
16472;SDS011;8347;52.486;13.432;2023-07-30T15:54:41;8.88;;;4.22;;
16472;SDS011;8347;52.486;13.432;2023-07-30T15:57:27;5.90;;;3.58;;
16472;SDS011;8347;52.486;13.432;2023-07-30T16:00:13;7.80;;;3.83;;
16472;SDS011;8347;52.486;13.432;2023-07-30T16:03:00;9.30;;;7.10;;
16472;SDS011;8347;52.486;13.432;2023-07-30T16:05:49;5.30;;;3.85;;
16472;SDS011;8347;52.486;13.432;2023-07-30T16:08:36;8.23;;;4.60;;
16472;SDS011;8347;52.486;13.432;2023-07-30T16:11:24;4.07;;;3.20;;
16472;SDS011;8347;52.486;13.432;2023-07-30T16:14:11;6.63;;;4.18;;
16472;SDS011;8347;52.486;13.432;2023-07-30T16:16:57;5.80;;;4.35;;
16472;SDS011;8347;52.486;13.432;2023-07-30T16:19:44;5.47;;;4.10;;
16472;SDS011;8347;52.486;13.432;2023-07-30T16:22:30;9.85;;;5.97;;
16472;SDS011;8347;52.486;13.432;2023-07-30T16:25:17;7.97;;;5.53;;
16472;SDS011;8347;52.486;13.432;2023-07-30T16:28:03;7.60;;;4.10;;
16472;SDS011;8347;52.486;13.432;2023-07-30T16:30:50;5.53;;;3.22;;
16472;SDS011;8347;52.486;13.432;2023-07-30T16:33:36;6.03;;;4.60;;
16472;SDS011;8347;52.486;13.432;2023-07-30T16:36:23;8.00;;;5.32;;
16472;SDS011;8347;52.486;13.432;2023-07-30T16:39:10;9.48;;;5.50;;
16472;SDS011;8347;52.486;13.432;2023-07-30T16:41:56;7.15;;;4.82;;
16472;SDS011;8347;52.486;13.432;2023-07-30T16:44:46;7.22;;;4.13;;
16472;SDS011;8347;52.486;13.432;2023-07-30T16:47:33;5.38;;;4.13;;